sensor_id;sensor_type;location;lat;lon;timestamp;P1;durP1;ratioP1;P2;durP2;ratioP2
22160;SDS011;49035;48.812;11.762;2024-02-14T00:01:51;8.93;;;3.60;;
22160;SDS011;49035;48.812;11.762;2024-02-14T00:04:17;7.60;;;5.13;;
22160;SDS011;49035;48.812;11.762;2024-02-14T00:06:44;7.33;;;4.60;;
22160;SDS011;49035;48.812;11.762;2024-02-14T00:09:10;6.97;;;4.80;;
22160;SDS011;49035;48.812;11.762;2024-02-14T00:11:36;6.43;;;5.30;;
22160;SDS011;49035;48.812;11.762;2024-02-14T00:14:02;8.87;;;5.13;;
22160;SDS011;49035;48.812;11.762;2024-02-14T00:16:27;6.97;;;5.60;;
22160;SDS011;49035;48.812;11.762;2024-02-14T00:18:55;7.90;;;5.17;;
22160;SDS011;49035;48.812;11.762;2024-02-14T00:21:22;8.97;;;5.73;;
22160;SDS011;49035;48.812;11.762;2024-02-14T00:23:47;7.83;;;4.50;;
22160;SDS011;49035;48.812;11.762;2024-02-14T00:26:13;9.10;;;6.30;;
22160;SDS011;49035;48.812;11.762;2024-02-14T00:28:39;9.23;;;5.83;;
22160;SDS011;49035;48.812;11.762;2024-02-14T00:31:04;12.63;;;7.20;;
22160;SDS011;49035;48.812;11.762;2024-02-14T00:33:31;10.80;;;5.80;;
22160;SDS011;49035;48.812;11.762;2024-02-14T00:35:56;8.83;;;6.47;;
22160;SDS011;49035;48.812;11.762;2024-02-14T00:38:22;10.47;;;6.40;;
22160;SDS011;49035;48.812;11.762;2024-02-14T00:40:47;8.40;;;5.97;;
22160;SDS011;49035;48.812;11.762;2024-02-14T00:43:13;8.40;;;5.73;;
22160;SDS011;49035;48.812;11.762;2024-02-14T00:45:39;8.63;;;6.00;;
22160;SDS011;49035;48.812;11.762;2024-02-14T00:48:04;9.10;;;5.73;;
22160;SDS011;49035;48.812;11.762;2024-02-14T00:50:32;11.50;;;6.50;;
22160;SDS011;49035;48.812;11.762;2024-02-14T00:52:58;10.40;;;6.60;;
22160;SDS011;49035;48.812;11.762;2024-02-14T00:55:24;12.53;;;6.63;;
22160;SDS011;49035;48.812;11.762;2024-02-14T00:57:50;11.07;;;7.10;;
22160;SDS011;49035;48.812;11.762;2024-02-14T01:00:16;11.87;;;6.87;;
22160;SDS011;49035;48.812;11.762;2024-02-14T01:02:42;9.93;;;6.73;;
22160;SDS011;49035;48.812;11.762;2024-02-14T01:05:08;10.70;;;7.27;;
22160;SDS011;49035;48.812;11.762;2024-02-14T01:07:34;14.70;;;7.70;;
22160;SDS011;49035;48.812;11.762;2024-02-14T01:10:00;17.27;;;6.63;;
22160;SDS011;49035;48.812;11.762;2024-02-14T01:12:25;9.50;;;6.73;;
22160;SDS011;49035;48.812;11.762;2024-02-14T01:14:51;11.07;;;6.20;;
22160;SDS011;49035;48.812;11.762;2024-02-14T01:17:17;9.80;;;6.43;;
22160;SDS011;49035;48.812;11.762;2024-02-14T01:19:42;10.70;;;6.77;;
22160;SDS011;49035;48.812;11.762;2024-02-14T01:22:08;8.87;;;5.90;;
22160;SDS011;49035;48.812;11.762;2024-02-14T01:24:34;8.83;;;6.00;;
22160;SDS011;49035;48.812;11.762;2024-02-14T01:26:59;9.83;;;6.80;;
22160;SDS011;49035;48.812;11.762;2024-02-14T01:29:25;12.50;;;7.57;;
22160;SDS011;49035;48.812;11.762;2024-02-14T01:31:51;9.53;;;6.60;;
22160;SDS011;49035;48.812;11.762;2024-02-14T01:34:17;10.37;;;6.37;;
22160;SDS011;49035;48.812;11.762;2024-02-14T01:36:43;11.87;;;6.57;;
22160;SDS011;49035;48.812;11.762;2024-02-14T01:39:08;14.20;;;6.83;;
22160;SDS011;49035;48.812;11.762;2024-02-14T01:41:36;12.97;;;7.10;;
22160;SDS011;49035;48.812;11.762;2024-02-14T01:44:03;9.83;;;6.43;;
22160;SDS011;49035;48.812;11.762;2024-02-14T01:46:29;12.03;;;7.47;;
22160;SDS011;49035;48.812;11.762;2024-02-14T01:48:55;32.17;;;10.10;;
22160;SDS011;49035;48.812;11.762;2024-02-14T01:51:21;14.57;;;8.23;;
22160;SDS011;49035;48.812;11.762;2024-02-14T01:53:49;14.13;;;8.50;;
22160;SDS011;49035;48.812;11.762;2024-02-14T01:56:16;12.13;;;8.17;;
22160;SDS011;49035;48.812;11.762;2024-02-14T01:58:42;18.47;;;8.53;;
22160;SDS011;49035;48.812;11.762;2024-02-14T02:01:08;25.63;;;9.17;;
22160;SDS011;49035;48.812;11.762;2024-02-14T02:03:34;12.50;;;7.00;;
22160;SDS011;49035;48.812;11.762;2024-02-14T02:06:02;13.40;;;7.27;;
22160;SDS011;49035;48.812;11.762;2024-02-14T02:08:30;10.83;;;7.50;;
22160;SDS011;49035;48.812;11.762;2024-02-14T02:10:57;12.40;;;7.77;;
22160;SDS011;49035;48.812;11.762;2024-02-14T02:13:23;13.37;;;8.37;;
22160;SDS011;49035;48.812;11.762;2024-02-14T02:15:48;11.83;;;7.03;;
22160;SDS011;49035;48.812;11.762;2024-02-14T02:18:14;9.50;;;7.20;;
22160;SDS011;49035;48.812;11.762;2024-02-14T02:20:40;14.87;;;7.23;;
22160;SDS011;49035;48.812;11.762;2024-02-14T02:23:09;10.97;;;6.80;;
22160;SDS011;49035;48.812;11.762;2024-02-14T02:25:41;12.07;;;7.57;;
22160;SDS011;49035;48.812;11.762;2024-02-14T02:28:09;9.67;;;6.50;;
22160;SDS011;49035;48.812;11.762;2024-02-14T02:30:35;10.03;;;7.00;;
22160;SDS011;49035;48.812;11.762;2024-02-14T02:33:02;12.03;;;6.97;;
22160;SDS011;49035;48.812;11.762;2024-02-14T02:35:28;9.57;;;6.20;;
22160;SDS011;49035;48.812;11.762;2024-02-14T02:37:54;8.33;;;6.33;;
22160;SDS011;49035;48.812;11.762;2024-02-14T02:40:20;10.27;;;6.77;;
22160;SDS011;49035;48.812;11.762;2024-02-14T02:42:48;8.40;;;6.50;;
22160;SDS011;49035;48.812;11.762;2024-02-14T02:45:15;7.43;;;5.50;;
22160;SDS011;49035;48.812;11.762;2024-02-14T02:47:41;11.53;;;6.70;;
22160;SDS011;49035;48.812;11.762;2024-02-14T02:50:06;10.97;;;6.50;;
22160;SDS011;49035;48.812;11.762;2024-02-14T02:52:33;12.40;;;7.30;;
22160;SDS011;49035;48.812;11.762;2024-02-14T02:54:59;10.13;;;6.03;;
22160;SDS011;49035;48.812;11.762;2024-02-14T02:57:26;11.43;;;6.60;;
22160;SDS011;49035;48.812;11.762;2024-02-14T02:59:52;10.63;;;6.23;;
22160;SDS011;49035;48.812;11.762;2024-02-14T03:02:19;10.07;;;6.07;;
22160;SDS011;49035;48.812;11.762;2024-02-14T03:04:45;10.47;;;6.10;;
22160;SDS011;49035;48.812;11.762;2024-02-14T03:07:12;9.57;;;6.30;;
22160;SDS011;49035;48.812;11.762;2024-02-14T03:09:37;11.47;;;6.57;;
22160;SDS011;49035;48.812;11.762;2024-02-14T03:12:03;10.83;;;6.57;;
22160;SDS011;49035;48.812;11.762;2024-02-14T03:14:32;10.00;;;6.33;;
22160;SDS011;49035;48.812;11.762;2024-02-14T03:17:01;10.47;;;6.40;;
22160;SDS011;49035;48.812;11.762;2024-02-14T03:19:28;9.03;;;6.37;;
22160;SDS011;49035;48.812;11.762;2024-02-14T03:21:54;7.93;;;5.90;;
22160;SDS011;49035;48.812;11.762;2024-02-14T03:24:20;9.83;;;6.47;;
22160;SDS011;49035;48.812;11.762;2024-02-14T03:26:46;12.70;;;6.80;;
22160;SDS011;49035;48.812;11.762;2024-02-14T03:29:11;9.33;;;6.33;;
22160;SDS011;49035;48.812;11.762;2024-02-14T03:31:37;13.23;;;6.90;;
22160;SDS011;49035;48.812;11.762;2024-02-14T03:34:03;11.47;;;6.70;;
22160;SDS011;49035;48.812;11.762;2024-02-14T03:36:30;14.87;;;7.07;;
22160;SDS011;49035;48.812;11.762;2024-02-14T03:38:59;11.37;;;6.73;;
22160;SDS011;49035;48.812;11.762;2024-02-14T03:41:29;10.67;;;6.43;;
22160;SDS011;49035;48.812;11.762;2024-02-14T03:43:54;11.80;;;6.00;;
22160;SDS011;49035;48.812;11.762;2024-02-14T03:46:23;10.77;;;6.53;;
22160;SDS011;49035;48.812;11.762;2024-02-14T03:48:49;14.87;;;7.37;;
22160;SDS011;49035;48.812;11.762;2024-02-14T03:51:14;10.77;;;6.63;;
22160;SDS011;49035;48.812;11.762;2024-02-14T03:53:41;13.50;;;7.10;;
22160;SDS011;49035;48.812;11.762;2024-02-14T03:56:06;9.30;;;6.23;;
22160;SDS011;49035;48.812;11.762;2024-02-14T03:58:32;12.17;;;6.47;;
22160;SDS011;49035;48.812;11.762;2024-02-14T04:01:05;8.33;;;6.03;;
22160;SDS011;49035;48.812;11.762;2024-02-14T04:03:31;10.97;;;6.30;;
22160;SDS011;49035;48.812;11.762;2024-02-14T04:05:56;12.70;;;6.67;;
22160;SDS011;49035;48.812;11.762;2024-02-14T04:08:23;8.47;;;5.90;;
22160;SDS011;49035;48.812;11.762;2024-02-14T04:10:48;9.07;;;5.80;;
22160;SDS011;49035;48.812;11.762;2024-02-14T04:13:19;9.87;;;6.30;;
22160;SDS011;49035;48.812;11.762;2024-02-14T04:15:46;12.20;;;6.30;;
22160;SDS011;49035;48.812;11.762;2024-02-14T04:18:12;5.60;;;4.87;;
22160;SDS011;49035;48.812;11.762;2024-02-14T04:20:39;10.50;;;6.97;;
22160;SDS011;49035;48.812;11.762;2024-02-14T04:23:06;12.50;;;7.13;;
22160;SDS011;49035;48.812;11.762;2024-02-14T04:25:31;7.40;;;5.20;;
22160;SDS011;49035;48.812;11.762;2024-02-14T04:27:57;13.07;;;6.47;;
22160;SDS011;49035;48.812;11.762;2024-02-14T04:30:24;9.33;;;6.10;;
22160;SDS011;49035;48.812;11.762;2024-02-14T04:32:50;8.60;;;6.03;;
22160;SDS011;49035;48.812;11.762;2024-02-14T04:35:17;10.97;;;6.90;;
22160;SDS011;49035;48.812;11.762;2024-02-14T04:37:45;10.00;;;6.63;;
22160;SDS011;49035;48.812;11.762;2024-02-14T04:40:12;9.50;;;6.37;;
22160;SDS011;49035;48.812;11.762;2024-02-14T04:42:39;9.97;;;7.03;;
22160;SDS011;49035;48.812;11.762;2024-02-14T04:45:05;11.47;;;6.87;;
22160;SDS011;49035;48.812;11.762;2024-02-14T04:47:31;12.63;;;6.60;;
22160;SDS011;49035;48.812;11.762;2024-02-14T04:49:57;11.87;;;7.63;;
22160;SDS011;49035;48.812;11.762;2024-02-14T04:52:22;12.17;;;7.67;;
22160;SDS011;49035;48.812;11.762;2024-02-14T04:54:48;10.57;;;7.43;;
22160;SDS011;49035;48.812;11.762;2024-02-14T04:57:14;14.40;;;7.00;;
22160;SDS011;49035;48.812;11.762;2024-02-14T04:59:40;10.37;;;7.03;;
22160;SDS011;49035;48.812;11.762;2024-02-14T05:02:06;14.10;;;7.53;;
22160;SDS011;49035;48.812;11.762;2024-02-14T05:04:32;11.27;;;7.40;;
22160;SDS011;49035;48.812;11.762;2024-02-14T05:07:00;11.73;;;7.47;;
22160;SDS011;49035;48.812;11.762;2024-02-14T05:09:25;15.87;;;7.53;;
22160;SDS011;49035;48.812;11.762;2024-02-14T05:11:51;10.93;;;7.13;;
22160;SDS011;49035;48.812;11.762;2024-02-14T05:14:17;13.60;;;7.83;;
22160;SDS011;49035;48.812;11.762;2024-02-14T05:16:43;13.00;;;7.80;;
22160;SDS011;49035;48.812;11.762;2024-02-14T05:19:08;9.77;;;7.40;;
22160;SDS011;49035;48.812;11.762;2024-02-14T05:21:34;13.60;;;9.23;;
22160;SDS011;49035;48.812;11.762;2024-02-14T05:24:01;15.57;;;8.53;;
22160;SDS011;49035;48.812;11.762;2024-02-14T05:26:26;15.83;;;8.37;;
22160;SDS011;49035;48.812;11.762;2024-02-14T05:28:52;14.37;;;9.20;;
22160;SDS011;49035;48.812;11.762;2024-02-14T05:31:17;14.40;;;9.53;;
22160;SDS011;49035;48.812;11.762;2024-02-14T05:33:43;16.50;;;9.63;;
22160;SDS011;49035;48.812;11.762;2024-02-14T05:36:09;16.13;;;10.23;;
22160;SDS011;49035;48.812;11.762;2024-02-14T05:38:35;18.10;;;9.53;;
22160;SDS011;49035;48.812;11.762;2024-02-14T05:41:00;14.27;;;9.87;;
22160;SDS011;49035;48.812;11.762;2024-02-14T05:43:26;17.67;;;10.40;;
22160;SDS011;49035;48.812;11.762;2024-02-14T05:45:52;18.03;;;10.40;;
22160;SDS011;49035;48.812;11.762;2024-02-14T05:48:18;20.13;;;10.90;;
22160;SDS011;49035;48.812;11.762;2024-02-14T05:50:44;19.43;;;10.63;;
22160;SDS011;49035;48.812;11.762;2024-02-14T05:53:10;16.47;;;9.63;;
22160;SDS011;49035;48.812;11.762;2024-02-14T05:55:37;21.30;;;9.77;;
22160;SDS011;49035;48.812;11.762;2024-02-14T05:58:03;19.03;;;9.77;;
22160;SDS011;49035;48.812;11.762;2024-02-14T06:00:29;17.67;;;10.03;;
22160;SDS011;49035;48.812;11.762;2024-02-14T06:02:55;21.10;;;10.37;;
22160;SDS011;49035;48.812;11.762;2024-02-14T06:05:21;15.43;;;10.07;;
22160;SDS011;49035;48.812;11.762;2024-02-14T06:07:47;18.07;;;9.83;;
22160;SDS011;49035;48.812;11.762;2024-02-14T06:10:12;17.27;;;10.50;;
22160;SDS011;49035;48.812;11.762;2024-02-14T06:12:38;16.57;;;9.47;;
22160;SDS011;49035;48.812;11.762;2024-02-14T06:15:08;16.00;;;8.53;;
22160;SDS011;49035;48.812;11.762;2024-02-14T06:17:34;13.33;;;7.60;;
22160;SDS011;49035;48.812;11.762;2024-02-14T06:20:00;12.60;;;6.43;;
22160;SDS011;49035;48.812;11.762;2024-02-14T06:22:30;14.13;;;8.50;;
22160;SDS011;49035;48.812;11.762;2024-02-14T06:24:57;10.50;;;7.00;;
22160;SDS011;49035;48.812;11.762;2024-02-14T06:27:23;16.77;;;7.93;;
22160;SDS011;49035;48.812;11.762;2024-02-14T06:29:49;9.93;;;7.00;;
22160;SDS011;49035;48.812;11.762;2024-02-14T06:32:14;10.37;;;7.20;;
22160;SDS011;49035;48.812;11.762;2024-02-14T06:34:40;17.57;;;8.20;;
22160;SDS011;49035;48.812;11.762;2024-02-14T06:37:05;11.73;;;7.23;;
22160;SDS011;49035;48.812;11.762;2024-02-14T06:39:31;14.67;;;7.93;;
22160;SDS011;49035;48.812;11.762;2024-02-14T06:41:56;14.97;;;9.33;;
22160;SDS011;49035;48.812;11.762;2024-02-14T06:44:22;15.10;;;10.30;;
22160;SDS011;49035;48.812;11.762;2024-02-14T06:46:48;14.37;;;8.87;;
22160;SDS011;49035;48.812;11.762;2024-02-14T06:49:15;13.47;;;8.37;;
22160;SDS011;49035;48.812;11.762;2024-02-14T06:51:41;13.30;;;8.40;;
22160;SDS011;49035;48.812;11.762;2024-02-14T06:54:07;13.07;;;8.63;;
22160;SDS011;49035;48.812;11.762;2024-02-14T06:56:33;14.70;;;8.93;;
22160;SDS011;49035;48.812;11.762;2024-02-14T06:58:58;14.30;;;9.53;;
22160;SDS011;49035;48.812;11.762;2024-02-14T07:01:31;17.40;;;9.47;;
22160;SDS011;49035;48.812;11.762;2024-02-14T07:03:57;12.93;;;8.87;;
22160;SDS011;49035;48.812;11.762;2024-02-14T07:06:23;14.13;;;9.50;;
22160;SDS011;49035;48.812;11.762;2024-02-14T07:08:49;14.73;;;9.43;;
22160;SDS011;49035;48.812;11.762;2024-02-14T07:11:16;15.70;;;9.83;;
22160;SDS011;49035;48.812;11.762;2024-02-14T07:13:42;17.47;;;9.20;;
22160;SDS011;49035;48.812;11.762;2024-02-14T07:16:08;15.37;;;9.47;;
22160;SDS011;49035;48.812;11.762;2024-02-14T07:18:34;17.40;;;9.70;;
22160;SDS011;49035;48.812;11.762;2024-02-14T07:20:59;15.77;;;10.07;;
22160;SDS011;49035;48.812;11.762;2024-02-14T07:23:26;13.70;;;8.73;;
22160;SDS011;49035;48.812;11.762;2024-02-14T07:25:52;16.23;;;10.53;;
22160;SDS011;49035;48.812;11.762;2024-02-14T07:28:18;25.63;;;12.37;;
22160;SDS011;49035;48.812;11.762;2024-02-14T07:30:44;23.20;;;10.70;;
22160;SDS011;49035;48.812;11.762;2024-02-14T07:33:09;18.83;;;12.23;;
22160;SDS011;49035;48.812;11.762;2024-02-14T07:35:36;18.67;;;11.13;;
22160;SDS011;49035;48.812;11.762;2024-02-14T07:38:02;23.87;;;11.93;;
22160;SDS011;49035;48.812;11.762;2024-02-14T07:40:27;30.10;;;17.30;;
22160;SDS011;49035;48.812;11.762;2024-02-14T07:42:56;30.50;;;18.03;;
22160;SDS011;49035;48.812;11.762;2024-02-14T07:45:22;22.67;;;14.47;;
22160;SDS011;49035;48.812;11.762;2024-02-14T07:47:49;22.10;;;14.27;;
22160;SDS011;49035;48.812;11.762;2024-02-14T07:50:14;24.80;;;15.23;;
22160;SDS011;49035;48.812;11.762;2024-02-14T07:52:41;20.50;;;14.33;;
22160;SDS011;49035;48.812;11.762;2024-02-14T07:55:08;20.67;;;13.57;;
22160;SDS011;49035;48.812;11.762;2024-02-14T07:57:37;19.73;;;12.80;;
22160;SDS011;49035;48.812;11.762;2024-02-14T08:00:03;20.37;;;13.27;;
22160;SDS011;49035;48.812;11.762;2024-02-14T08:02:30;18.30;;;12.60;;
22160;SDS011;49035;48.812;11.762;2024-02-14T08:04:55;19.30;;;12.57;;
22160;SDS011;49035;48.812;11.762;2024-02-14T08:07:21;24.77;;;13.00;;
22160;SDS011;49035;48.812;11.762;2024-02-14T08:09:46;23.97;;;15.50;;
22160;SDS011;49035;48.812;11.762;2024-02-14T08:12:12;21.43;;;13.27;;
22160;SDS011;49035;48.812;11.762;2024-02-14T08:14:37;16.77;;;11.70;;
22160;SDS011;49035;48.812;11.762;2024-02-14T08:17:03;16.53;;;10.10;;
22160;SDS011;49035;48.812;11.762;2024-02-14T08:19:29;20.30;;;11.77;;
22160;SDS011;49035;48.812;11.762;2024-02-14T08:21:54;18.50;;;11.50;;
22160;SDS011;49035;48.812;11.762;2024-02-14T08:24:24;18.97;;;13.93;;
22160;SDS011;49035;48.812;11.762;2024-02-14T08:26:51;17.60;;;12.53;;
22160;SDS011;49035;48.812;11.762;2024-02-14T08:29:16;24.00;;;14.00;;
22160;SDS011;49035;48.812;11.762;2024-02-14T08:31:43;22.20;;;14.03;;
22160;SDS011;49035;48.812;11.762;2024-02-14T08:34:08;26.57;;;15.47;;
22160;SDS011;49035;48.812;11.762;2024-02-14T08:36:34;20.63;;;13.80;;
22160;SDS011;49035;48.812;11.762;2024-02-14T08:39:06;21.00;;;13.93;;
22160;SDS011;49035;48.812;11.762;2024-02-14T08:41:32;23.73;;;14.17;;
22160;SDS011;49035;48.812;11.762;2024-02-14T08:43:58;23.30;;;13.50;;
22160;SDS011;49035;48.812;11.762;2024-02-14T08:46:23;21.57;;;14.93;;
22160;SDS011;49035;48.812;11.762;2024-02-14T08:48:50;19.80;;;13.93;;
22160;SDS011;49035;48.812;11.762;2024-02-14T08:51:16;17.73;;;12.73;;
22160;SDS011;49035;48.812;11.762;2024-02-14T08:53:45;18.90;;;12.30;;
22160;SDS011;49035;48.812;11.762;2024-02-14T08:56:11;19.20;;;13.23;;
22160;SDS011;49035;48.812;11.762;2024-02-14T08:58:37;19.30;;;12.80;;
22160;SDS011;49035;48.812;11.762;2024-02-14T09:01:02;19.37;;;13.13;;
22160;SDS011;49035;48.812;11.762;2024-02-14T09:03:28;19.40;;;12.97;;
22160;SDS011;49035;48.812;11.762;2024-02-14T09:05:56;21.03;;;12.70;;
22160;SDS011;49035;48.812;11.762;2024-02-14T09:08:22;16.53;;;11.47;;
22160;SDS011;49035;48.812;11.762;2024-02-14T09:10:49;17.17;;;12.50;;
22160;SDS011;49035;48.812;11.762;2024-02-14T09:13:15;21.10;;;14.13;;
22160;SDS011;49035;48.812;11.762;2024-02-14T09:15:41;19.73;;;14.60;;
22160;SDS011;49035;48.812;11.762;2024-02-14T09:18:07;20.43;;;13.80;;
22160;SDS011;49035;48.812;11.762;2024-02-14T09:20:34;16.70;;;12.97;;
22160;SDS011;49035;48.812;11.762;2024-02-14T09:23:00;15.73;;;10.77;;
22160;SDS011;49035;48.812;11.762;2024-02-14T09:25:26;12.30;;;9.13;;
22160;SDS011;49035;48.812;11.762;2024-02-14T09:27:51;14.07;;;9.32;;
22160;SDS011;49035;48.812;11.762;2024-02-14T09:30:18;11.75;;;8.80;;
22160;SDS011;49035;48.812;11.762;2024-02-14T09:32:44;12.02;;;8.95;;
22160;SDS011;49035;48.812;11.762;2024-02-14T09:35:09;12.45;;;9.25;;
22160;SDS011;49035;48.812;11.762;2024-02-14T09:37:35;11.63;;;8.85;;
22160;SDS011;49035;48.812;11.762;2024-02-14T09:40:03;15.18;;;8.52;;
22160;SDS011;49035;48.812;11.762;2024-02-14T09:45:16;11.50;;;8.10;;
22160;SDS011;49035;48.812;11.762;2024-02-14T09:47:42;11.70;;;7.97;;
22160;SDS011;49035;48.812;11.762;2024-02-14T09:50:09;13.27;;;8.13;;
22160;SDS011;49035;48.812;11.762;2024-02-14T09:52:37;13.02;;;8.15;;
22160;SDS011;49035;48.812;11.762;2024-02-14T09:55:03;13.83;;;8.83;;
22160;SDS011;49035;48.812;11.762;2024-02-14T09:57:31;13.40;;;9.23;;
22160;SDS011;49035;48.812;11.762;2024-02-14T09:59:57;11.85;;;7.80;;
22160;SDS011;49035;48.812;11.762;2024-02-14T10:02:25;12.40;;;8.20;;
22160;SDS011;49035;48.812;11.762;2024-02-14T10:04:50;9.33;;;7.73;;
22160;SDS011;49035;48.812;11.762;2024-02-14T10:07:16;12.13;;;9.20;;
22160;SDS011;49035;48.812;11.762;2024-02-14T10:09:42;15.13;;;8.23;;
22160;SDS011;49035;48.812;11.762;2024-02-14T10:12:08;13.80;;;7.85;;
22160;SDS011;49035;48.812;11.762;2024-02-14T10:14:34;14.95;;;8.32;;
22160;SDS011;49035;48.812;11.762;2024-02-14T10:17:02;12.90;;;7.90;;
22160;SDS011;49035;48.812;11.762;2024-02-14T10:19:31;11.05;;;7.47;;
22160;SDS011;49035;48.812;11.762;2024-02-14T10:21:57;21.00;;;7.63;;
22160;SDS011;49035;48.812;11.762;2024-02-14T10:24:24;9.60;;;6.85;;
22160;SDS011;49035;48.812;11.762;2024-02-14T10:26:51;15.10;;;6.97;;
22160;SDS011;49035;48.812;11.762;2024-02-14T10:29:18;9.65;;;6.70;;
22160;SDS011;49035;48.812;11.762;2024-02-14T10:31:48;11.65;;;6.85;;
22160;SDS011;49035;48.812;11.762;2024-02-14T10:34:13;12.27;;;7.65;;
22160;SDS011;49035;48.812;11.762;2024-02-14T10:36:39;12.85;;;7.18;;
22160;SDS011;49035;48.812;11.762;2024-02-14T10:39:07;10.50;;;6.75;;
22160;SDS011;49035;48.812;11.762;2024-02-14T10:41:35;10.13;;;6.57;;
22160;SDS011;49035;48.812;11.762;2024-02-14T10:44:02;14.00;;;6.85;;
22160;SDS011;49035;48.812;11.762;2024-02-14T10:46:29;12.13;;;7.30;;
22160;SDS011;49035;48.812;11.762;2024-02-14T10:48:58;10.80;;;6.47;;
22160;SDS011;49035;48.812;11.762;2024-02-14T10:51:28;9.75;;;5.63;;
22160;SDS011;49035;48.812;11.762;2024-02-14T10:53:57;7.72;;;5.53;;
22160;SDS011;49035;48.812;11.762;2024-02-14T10:56:24;10.35;;;5.60;;
22160;SDS011;49035;48.812;11.762;2024-02-14T10:58:53;8.05;;;5.70;;
22160;SDS011;49035;48.812;11.762;2024-02-14T11:01:22;7.78;;;5.28;;
22160;SDS011;49035;48.812;11.762;2024-02-14T11:03:50;7.97;;;4.88;;
22160;SDS011;49035;48.812;11.762;2024-02-14T11:06:16;7.47;;;4.78;;
22160;SDS011;49035;48.812;11.762;2024-02-14T11:08:42;6.00;;;4.25;;
22160;SDS011;49035;48.812;11.762;2024-02-14T11:11:32;4.40;;;3.88;;
22160;SDS011;49035;48.812;11.762;2024-02-14T11:13:58;6.75;;;4.20;;
22160;SDS011;49035;48.812;11.762;2024-02-14T11:16:27;4.93;;;3.97;;
22160;SDS011;49035;48.812;11.762;2024-02-14T11:19:15;7.03;;;3.92;;
22160;SDS011;49035;48.812;11.762;2024-02-14T11:21:46;6.68;;;4.00;;
22160;SDS011;49035;48.812;11.762;2024-02-14T11:24:13;6.20;;;4.28;;
22160;SDS011;49035;48.812;11.762;2024-02-14T11:26:46;6.75;;;3.88;;
22160;SDS011;49035;48.812;11.762;2024-02-14T11:29:15;6.30;;;4.15;;
22160;SDS011;49035;48.812;11.762;2024-02-14T11:31:42;7.72;;;3.85;;
22160;SDS011;49035;48.812;11.762;2024-02-14T11:34:08;6.05;;;3.88;;
22160;SDS011;49035;48.812;11.762;2024-02-14T11:36:36;6.90;;;4.03;;
22160;SDS011;49035;48.812;11.762;2024-02-14T11:39:03;7.18;;;4.53;;
22160;SDS011;49035;48.812;11.762;2024-02-14T11:41:32;7.25;;;4.22;;
22160;SDS011;49035;48.812;11.762;2024-02-14T11:44:05;5.95;;;4.20;;
22160;SDS011;49035;48.812;11.762;2024-02-14T11:46:35;7.70;;;4.65;;
22160;SDS011;49035;48.812;11.762;2024-02-14T11:49:02;6.00;;;4.43;;
22160;SDS011;49035;48.812;11.762;2024-02-14T11:51:29;7.30;;;4.30;;
22160;SDS011;49035;48.812;11.762;2024-02-14T11:53:56;7.72;;;3.85;;
22160;SDS011;49035;48.812;11.762;2024-02-14T11:56:35;9.52;;;3.88;;
22160;SDS011;49035;48.812;11.762;2024-02-14T11:59:02;5.43;;;3.53;;
22160;SDS011;49035;48.812;11.762;2024-02-14T12:01:33;5.78;;;3.45;;
22160;SDS011;49035;48.812;11.762;2024-02-14T12:04:00;4.40;;;3.17;;
22160;SDS011;49035;48.812;11.762;2024-02-14T12:06:28;6.50;;;3.20;;
22160;SDS011;49035;48.812;11.762;2024-02-14T12:09:00;3.83;;;2.90;;
22160;SDS011;49035;48.812;11.762;2024-02-14T12:11:37;7.00;;;3.13;;
22160;SDS011;49035;48.812;11.762;2024-02-14T12:14:05;7.78;;;3.55;;
22160;SDS011;49035;48.812;11.762;2024-02-14T12:16:36;4.38;;;3.25;;
22160;SDS011;49035;48.812;11.762;2024-02-14T12:19:09;4.43;;;3.13;;
22160;SDS011;49035;48.812;11.762;2024-02-14T12:21:40;4.95;;;3.20;;
22160;SDS011;49035;48.812;11.762;2024-02-14T12:24:09;7.95;;;4.90;;
22160;SDS011;49035;48.812;11.762;2024-02-14T12:26:35;6.00;;;4.50;;
22160;SDS011;49035;48.812;11.762;2024-02-14T12:29:02;5.28;;;2.88;;
22160;SDS011;49035;48.812;11.762;2024-02-14T12:31:32;5.57;;;3.00;;
22160;SDS011;49035;48.812;11.762;2024-02-14T12:33:59;4.80;;;3.08;;
22160;SDS011;49035;48.812;11.762;2024-02-14T12:36:27;6.18;;;3.35;;
22160;SDS011;49035;48.812;11.762;2024-02-14T12:38:57;6.50;;;2.75;;
22160;SDS011;49035;48.812;11.762;2024-02-14T12:41:23;5.47;;;2.33;;
22160;SDS011;49035;48.812;11.762;2024-02-14T12:43:51;3.85;;;2.22;;
22160;SDS011;49035;48.812;11.762;2024-02-14T12:46:17;9.18;;;2.47;;
22160;SDS011;49035;48.812;11.762;2024-02-14T12:48:42;4.63;;;2.40;;
22160;SDS011;49035;48.812;11.762;2024-02-14T12:51:08;6.00;;;2.33;;
22160;SDS011;49035;48.812;11.762;2024-02-14T12:53:34;3.22;;;2.47;;
22160;SDS011;49035;48.812;11.762;2024-02-14T12:56:00;5.78;;;2.70;;
22160;SDS011;49035;48.812;11.762;2024-02-14T12:58:26;4.82;;;2.80;;
22160;SDS011;49035;48.812;11.762;2024-02-14T13:00:52;3.30;;;2.35;;
22160;SDS011;49035;48.812;11.762;2024-02-14T13:03:18;4.55;;;2.42;;
22160;SDS011;49035;48.812;11.762;2024-02-14T13:05:44;3.20;;;1.90;;
22160;SDS011;49035;48.812;11.762;2024-02-14T13:08:10;4.72;;;2.05;;
22160;SDS011;49035;48.812;11.762;2024-02-14T13:10:39;5.25;;;2.42;;
22160;SDS011;49035;48.812;11.762;2024-02-14T13:13:05;3.95;;;2.15;;
22160;SDS011;49035;48.812;11.762;2024-02-14T13:15:30;3.47;;;2.35;;
22160;SDS011;49035;48.812;11.762;2024-02-14T13:17:56;5.07;;;2.78;;
22160;SDS011;49035;48.812;11.762;2024-02-14T13:20:24;4.88;;;2.30;;
22160;SDS011;49035;48.812;11.762;2024-02-14T13:22:50;5.22;;;2.50;;
22160;SDS011;49035;48.812;11.762;2024-02-14T13:25:15;3.80;;;2.25;;
22160;SDS011;49035;48.812;11.762;2024-02-14T13:27:41;6.97;;;2.15;;
22160;SDS011;49035;48.812;11.762;2024-02-14T13:30:09;4.95;;;2.20;;
22160;SDS011;49035;48.812;11.762;2024-02-14T13:32:35;2.95;;;2.10;;
22160;SDS011;49035;48.812;11.762;2024-02-14T13:35:01;6.13;;;2.35;;
22160;SDS011;49035;48.812;11.762;2024-02-14T13:37:27;3.13;;;1.90;;
22160;SDS011;49035;48.812;11.762;2024-02-14T13:39:52;4.05;;;2.17;;
22160;SDS011;49035;48.812;11.762;2024-02-14T13:42:18;5.70;;;2.08;;
22160;SDS011;49035;48.812;11.762;2024-02-14T13:44:43;5.70;;;1.98;;
22160;SDS011;49035;48.812;11.762;2024-02-14T13:47:09;5.15;;;2.20;;
22160;SDS011;49035;48.812;11.762;2024-02-14T13:49:35;5.38;;;2.13;;
22160;SDS011;49035;48.812;11.762;2024-02-14T13:52:01;3.53;;;2.10;;
22160;SDS011;49035;48.812;11.762;2024-02-14T13:54:26;4.38;;;2.00;;
22160;SDS011;49035;48.812;11.762;2024-02-14T13:56:52;3.03;;;1.92;;
22160;SDS011;49035;48.812;11.762;2024-02-14T13:59:17;2.85;;;1.90;;
22160;SDS011;49035;48.812;11.762;2024-02-14T14:01:46;3.55;;;1.80;;
22160;SDS011;49035;48.812;11.762;2024-02-14T14:04:12;4.72;;;2.00;;
22160;SDS011;49035;48.812;11.762;2024-02-14T14:06:37;6.45;;;1.83;;
22160;SDS011;49035;48.812;11.762;2024-02-14T14:09:04;3.25;;;1.77;;
22160;SDS011;49035;48.812;11.762;2024-02-14T14:11:32;2.75;;;1.85;;
22160;SDS011;49035;48.812;11.762;2024-02-14T14:13:58;3.72;;;1.92;;
22160;SDS011;49035;48.812;11.762;2024-02-14T14:16:25;7.15;;;2.40;;
22160;SDS011;49035;48.812;11.762;2024-02-14T14:18:51;3.28;;;1.77;;
22160;SDS011;49035;48.812;11.762;2024-02-14T14:21:16;2.05;;;1.73;;
22160;SDS011;49035;48.812;11.762;2024-02-14T14:23:42;2.58;;;1.75;;